createdAt,value
2023-12-11T00:03:47.580Z,98718.19
2023-12-11T00:08:52.919Z,98715.44
2023-12-11T00:14:02.664Z,98697.53
2023-12-11T00:19:10.090Z,98691.22
2023-12-11T00:24:16.843Z,98690.06
2023-12-11T00:29:23.882Z,98694.47
2023-12-11T00:34:31.324Z,98690.06
2023-12-11T00:39:37.472Z,98688.75
2023-12-11T00:44:46.210Z,98677.97
2023-12-11T00:49:56.599Z,98680.91
2023-12-11T00:55:02.953Z,98687.44
2023-12-11T01:00:16.561Z,98676.38
2023-12-11T01:05:23.575Z,98678.50
2023-12-11T01:10:30.093Z,98683.38
2023-12-11T01:15:39.374Z,98687.63
2023-12-11T01:20:45.444Z,98689.31
2023-12-11T01:25:50.739Z,98696.97
2023-12-11T01:30:56.633Z,98689.34
2023-12-11T01:36:03.691Z,98684.25
2023-12-11T01:41:08.521Z,98677.25
2023-12-11T01:46:16.916Z,98677.84
2023-12-11T01:51:27.478Z,98677.38
2023-12-11T01:56:38.330Z,98695.13
2023-12-11T02:01:47.877Z,98676.69
2023-12-11T02:07:02.906Z,98667.22
2023-12-11T02:12:08.217Z,98665.44
2023-12-11T02:17:13.126Z,98663.19
2023-12-11T02:22:23.621Z,98669.19
2023-12-11T02:27:33.076Z,98670.34
2023-12-11T02:32:38.329Z,98677.84
2023-12-11T02:37:43.126Z,98697.94
2023-12-11T02:42:54.112Z,98689.78
2023-12-11T02:48:05.878Z,98700.22
2023-12-11T02:53:11.457Z,98693.38
2023-12-11T02:58:21.893Z,98691.13
2023-12-11T03:03:26.646Z,98694.00
2023-12-11T03:08:31.517Z,98683.59
2023-12-11T03:13:38.363Z,98688.66
2023-12-11T03:18:44.443Z,98686.19
2023-12-11T03:23:49.900Z,98700.72
2023-12-11T03:28:56.844Z,98715.56
2023-12-11T03:34:04.126Z,98715.72
2023-12-11T03:39:09.261Z,98722.59
2023-12-11T03:44:15.668Z,98724.25
2023-12-11T03:49:23.517Z,98720.84
2023-12-11T03:54:30.152Z,98726.56
2023-12-11T03:59:38.667Z,98722.53
2023-12-11T04:04:44.090Z,98720.75
2023-12-11T04:09:51.641Z,98717.66
2023-12-11T04:14:58.321Z,98725.81
2023-12-11T04:20:03.574Z,98730.53
2023-12-11T04:25:08.905Z,98725.28
2023-12-11T04:30:16.852Z,98724.16
2023-12-11T04:35:26.618Z,98730.84
2023-12-11T04:40:35.171Z,98727.06
2023-12-11T04:45:43.346Z,98727.53
2023-12-11T04:50:48.491Z,98738.63
2023-12-11T04:55:58.694Z,98742.53
2023-12-11T05:01:16.394Z,98747.09
2023-12-11T05:06:23.394Z,98749.06
2023-12-11T05:11:28.395Z,98756.09
2023-12-11T05:16:38.118Z,98762.44
2023-12-11T05:21:46.633Z,98754.91
2023-12-11T05:26:52.639Z,98749.38
2023-12-11T05:32:00.277Z,98766.47
2023-12-11T05:37:05.570Z,98764.41
2023-12-11T05:42:10.864Z,98752.22
2023-12-11T05:47:18.182Z,98743.91
2023-12-11T05:52:27.221Z,98740.16
2023-12-11T05:57:32.278Z,98741.13
2023-12-11T06:02:41.560Z,98738.19
2023-12-11T06:07:48.968Z,98743.75
2023-12-11T06:12:54.632Z,98752.53
2023-12-11T06:18:04.672Z,98745.50
2023-12-11T06:23:09.945Z,98749.41
2023-12-11T06:28:14.470Z,98762.59
2023-12-11T06:33:22.396Z,98768.81
2023-12-11T06:38:29.925Z,98755.09
2023-12-11T06:43:37.228Z,98751.66
2023-12-11T06:48:46.897Z,98760.00
2023-12-11T06:53:51.707Z,98756.72
2023-12-11T06:58:58.130Z,98745.66
2023-12-11T07:04:21.304Z,98738.78
2023-12-11T07:09:27.786Z,98731.59
2023-12-11T07:14:32.112Z,98723.44
2023-12-11T07:19:40.275Z,98723.28
2023-12-11T07:24:45.548Z,98722.94
2023-12-11T07:29:52.799Z,98717.72
2023-12-11T07:35:00.095Z,98721.47
2023-12-11T07:40:07.849Z,98730.59
2023-12-11T07:45:14.782Z,98722.97
2023-12-11T07:50:43.870Z,98726.25
2023-12-11T07:55:49.177Z,98723.94
2023-12-11T08:00:58.840Z,98703.94
2023-12-11T08:06:06.120Z,98695.78
2023-12-11T08:11:19.324Z,98689.72
2023-12-11T08:16:26.084Z,98679.28
2023-12-11T08:21:35.785Z,98673.38
2023-12-11T08:26:45.441Z,98681.34
2023-12-11T08:31:51.185Z,98672.22
2023-12-11T08:37:01.320Z,98664.22
2023-12-11T08:42:06.695Z,98667.81
2023-12-11T08:47:12.618Z,98662.69
2023-12-11T08:52:30.023Z,98663.03
2023-12-11T08:57:35.010Z,98670.03
2023-12-11T09:02:49.001Z,98665.25
2023-12-11T09:07:57.399Z,98669.00
2023-12-11T09:13:02.137Z,98673.59
2023-12-11T09:18:09.743Z,98658.56
2023-12-11T09:23:17.013Z,98651.69
2023-12-11T09:28:23.888Z,98648.59
2023-12-11T09:33:29.620Z,98649.72
2023-12-11T09:38:40.093Z,98640.66
2023-12-11T09:43:45.568Z,98630.50
2023-12-11T09:48:52.851Z,98627.84
2023-12-11T09:54:01.433Z,98619.78
2023-12-11T09:59:11.266Z,98616.00
2023-12-11T10:04:15.986Z,98621.00
2023-12-11T10:09:34.285Z,98630.09
2023-12-11T10:14:40.463Z,98633.34
2023-12-11T10:19:45.323Z,98635.72
2023-12-11T10:24:54.743Z,98627.63
2023-12-11T10:30:16.773Z,98615.28
2023-12-11T10:35:27.898Z,98601.75
2023-12-11T10:40:51.335Z,98606.94
2023-12-11T10:45:56.426Z,98598.69
2023-12-11T10:51:01.750Z,98595.00
2023-12-11T10:56:11.300Z,98593.66
2023-12-11T11:01:18.870Z,98598.81
2023-12-11T11:06:25.725Z,98603.88
2023-12-11T11:11:44.933Z,98603.41
2023-12-11T11:17:00.483Z,98597.03
2023-12-11T11:22:31.034Z,98578.94
2023-12-11T11:27:47.215Z,98587.50
2023-12-11T11:32:59.990Z,98580.56
2023-12-11T11:38:07.758Z,98584.38
2023-12-11T11:43:16.937Z,98565.03
2023-12-11T11:48:22.992Z,98566.38
2023-12-11T11:53:37.765Z,98572.03
2023-12-11T11:58:48.322Z,98576.31
2023-12-11T12:03:53.544Z,98563.63
2023-12-11T12:09:00.436Z,98563.91
2023-12-11T12:14:15.671Z,98555.03
2023-12-11T12:19:33.079Z,98554.38
2023-12-11T12:24:44.972Z,98551.13
2023-12-11T12:29:52.918Z,98547.50
2023-12-11T12:35:14.458Z,98541.91
2023-12-11T12:40:22.805Z,98538.47
2023-12-11T12:45:37.172Z,98540.91
2023-12-11T12:50:48.303Z,98540.91
2023-12-11T12:55:58.704Z,98540.91
2023-12-11T13:01:05.518Z,98544.72
2023-12-11T13:06:14.773Z,98551.22
2023-12-11T13:11:19.604Z,98538.53
2023-12-11T13:16:39.230Z,98544.25
2023-12-11T13:21:47.955Z,98547.66
2023-12-11T13:26:55.888Z,98561.06
2023-12-11T13:32:02.110Z,98560.63
2023-12-11T13:37:08.968Z,98557.75
2023-12-11T13:42:15.624Z,98555.66
2023-12-11T13:47:24.474Z,98548.78
2023-12-11T13:52:29.685Z,98553.59
2023-12-11T13:57:45.305Z,98556.56
2023-12-11T14:03:03.736Z,98554.16
2023-12-11T14:08:11.201Z,98563.56
2023-12-11T14:13:19.872Z,98565.91
2023-12-11T14:18:26.772Z,98568.91
2023-12-11T14:23:33.429Z,98568.25
2023-12-11T14:28:42.471Z,98591.22
2023-12-11T14:33:54.639Z,98589.97
2023-12-11T14:39:03.019Z,98596.56
2023-12-11T14:44:12.053Z,98597.94
2023-12-11T14:49:21.703Z,98598.63
2023-12-11T14:54:28.091Z,98618.44
2023-12-11T14:59:35.802Z,98612.31
2023-12-11T15:04:42.537Z,98620.34
2023-12-11T15:09:50.658Z,98616.47
2023-12-11T15:14:59.792Z,98631.56
2023-12-11T15:20:15.191Z,98633.69
2023-12-11T15:25:20.829Z,98633.88
2023-12-11T15:30:26.303Z,98635.84
2023-12-11T15:35:34.514Z,98658.34
2023-12-11T15:40:43.312Z,98663.13
2023-12-11T15:45:48.941Z,98680.38
2023-12-11T15:50:57.207Z,98681.38
2023-12-11T15:56:03.690Z,98684.66
2023-12-11T16:01:11.057Z,98686.66
2023-12-11T16:06:21.223Z,98683.41
2023-12-11T16:11:32.996Z,98699.63
2023-12-11T16:16:40.723Z,98711.66
2023-12-11T16:21:47.940Z,98725.91
2023-12-11T16:26:53.733Z,98742.94
2023-12-11T16:32:00.011Z,98745.09
2023-12-11T16:37:08.883Z,98757.34
2023-12-11T16:42:16.418Z,98772.13
2023-12-11T16:47:23.877Z,98773.47
2023-12-11T16:52:30.693Z,98770.56
2023-12-11T16:57:36.747Z,98784.59
2023-12-11T17:02:42.827Z,98792.34
2023-12-11T17:07:53.404Z,98802.31
2023-12-11T17:13:02.073Z,98803.44
2023-12-11T17:18:11.508Z,98816.22
2023-12-11T17:23:19.035Z,98839.63
2023-12-11T17:28:25.991Z,98841.25
2023-12-11T17:33:30.771Z,98869.06
2023-12-11T17:38:42.753Z,98882.81
2023-12-11T17:43:48.720Z,98886.13
2023-12-11T17:49:05.829Z,98891.69
2023-12-11T17:54:17.286Z,98877.16
2023-12-11T17:59:25.526Z,98906.25
2023-12-11T18:04:33.261Z,98902.81
2023-12-11T18:09:41.397Z,98918.00
2023-12-11T18:14:48.034Z,98919.16
2023-12-11T18:19:52.449Z,98940.38
2023-12-11T18:25:01.491Z,98952.66
2023-12-11T18:30:10.126Z,98965.25
2023-12-11T18:35:22.681Z,98975.72
2023-12-11T18:40:39.126Z,98971.13
2023-12-11T18:45:45.352Z,98970.13
2023-12-11T18:50:50.353Z,98975.84
2023-12-11T18:56:01.909Z,98967.34
2023-12-11T19:01:09.956Z,98976.16
2023-12-11T19:06:15.340Z,98983.81
2023-12-11T19:11:22.719Z,98999.47
2023-12-11T19:16:31.915Z,98995.34
2023-12-11T19:21:42.112Z,99008.53
2023-12-11T19:26:48.683Z,99020.09
2023-12-11T19:31:55.467Z,99033.78
2023-12-11T19:37:10.641Z,99066.25
2023-12-11T19:42:22.915Z,99070.19
2023-12-11T19:47:36.660Z,99081.34
2023-12-11T19:52:51.728Z,99077.91
2023-12-11T19:58:02.624Z,99091.47
2023-12-11T20:03:08.974Z,99107.28
2023-12-11T20:08:13.642Z,99109.34
2023-12-11T20:13:23.348Z,99115.66
2023-12-11T20:18:34.047Z,99126.53
2023-12-11T20:23:41.719Z,99129.53
2023-12-11T20:28:49.519Z,99151.44
2023-12-11T20:34:07.762Z,99152.78
2023-12-11T20:39:22.354Z,99165.69
2023-12-11T20:44:30.129Z,99163.75
2023-12-11T20:49:37.451Z,99178.56
2023-12-11T20:54:44.303Z,99206.06
2023-12-11T20:59:52.012Z,99207.97
2023-12-11T21:04:59.984Z,99215.66
2023-12-11T21:10:06.305Z,99227.22
2023-12-11T21:15:17.194Z,99246.50
2023-12-11T21:20:23.135Z,99257.59
2023-12-11T21:25:28.892Z,99264.94
2023-12-11T21:30:49.557Z,99269.03
2023-12-11T21:35:59.524Z,99260.53
2023-12-11T21:41:04.877Z,99273.34
2023-12-11T21:46:17.932Z,99270.53
2023-12-11T21:51:24.305Z,99275.38
2023-12-11T21:56:36.268Z,99282.00
2023-12-11T22:01:46.539Z,99293.19
2023-12-11T22:06:51.459Z,99294.28
2023-12-11T22:12:03.799Z,99299.81
2023-12-11T22:17:11.688Z,99305.81
2023-12-11T22:22:20.145Z,99325.13
2023-12-11T22:27:24.787Z,99339.56
2023-12-11T22:32:32.423Z,99346.03
2023-12-11T22:37:36.424Z,99362.78
2023-12-11T22:42:52.039Z,99370.94
2023-12-11T22:48:01.036Z,99378.94
2023-12-11T22:53:08.273Z,99379.75
2023-12-11T22:58:16.875Z,99395.28
2023-12-11T23:03:27.311Z,99396.28
2023-12-11T23:08:32.331Z,99403.56
2023-12-11T23:13:39.950Z,99396.56
2023-12-11T23:19:00.501Z,99390.53
2023-12-11T23:24:07.155Z,99388.91
2023-12-11T23:29:12.982Z,99393.81
2023-12-11T23:34:20.178Z,99385.72
2023-12-11T23:39:26.807Z,99382.84
2023-12-11T23:44:32.362Z,99407.50
2023-12-11T23:49:39.770Z,99393.25
2023-12-11T23:54:45.967Z,99398.03
